Time;durP1;ratioP1;P1;durP2;ratioP2;P2;SDS_P1;SDS_P2;PMS_P1;PMS_P2;Temp;Humidity;BMP_temperature;BMP_pressure;BME280_temperature;BME280_humidity;BME280_pressure;Samples;Min_cycle;Max_cycle;Signal;HPM_P1;HPM_P2
2022/08/24 00:01:54;;;;;;;2.50;2.30;;;24.60;57.70;;;;;;5053186;28;20257;-65
2022/08/24 00:04:20;;;;;;;2.63;2.25;;;24.50;57.70;;;;;;5052840;28;20171;-66
2022/08/24 00:06:45;;;;;;;2.10;1.88;;;24.60;57.80;;;;;;5053350;28;20171;-65
2022/08/24 00:09:11;;;;;;;2.38;2.17;;;24.60;57.80;;;;;;5053539;28;20325;-65
2022/08/24 00:11:36;;;;;;;2.70;2.13;;;24.60;57.80;;;;;;5053204;28;20289;-64
2022/08/24 00:14:02;;;;;;;2.30;2.20;;;24.60;57.80;;;;;;5052844;28;20532;-65
2022/08/24 00:16:28;;;;;;;2.85;2.00;;;24.50;57.80;;;;;;5053268;28;20190;-66
2022/08/24 00:18:54;;;;;;;2.17;2.00;;;24.60;57.80;;;;;;5052589;28;20254;-65
2022/08/24 00:21:20;;;;;;;2.75;1.77;;;24.50;57.80;;;;;;5053809;28;20199;-65
2022/08/24 00:23:48;;;;;;;2.25;2.00;;;24.50;57.80;;;;;;5053229;28;20217;-65
2022/08/24 00:26:14;;;;;;;2.45;2.25;;;24.50;57.80;;;;;;5053114;28;20186;-65
2022/08/24 00:28:39;;;;;;;2.40;2.20;;;24.50;57.80;;;;;;5053571;28;20179;-65
2022/08/24 00:31:05;;;;;;;3.30;2.20;;;24.50;57.80;;;;;;5053265;28;20181;-65
2022/08/24 00:33:31;;;;;;;2.92;2.30;;;24.50;57.90;;;;;;5052497;28;20175;-65
2022/08/24 00:35:57;;;;;;;3.45;2.20;;;24.50;57.90;;;;;;5053256;28;20531;-65
2022/08/24 00:38:22;;;;;;;2.00;1.90;;;24.50;57.90;;;;;;5052441;28;20213;-65
2022/08/24 00:40:48;;;;;;;3.40;2.00;;;24.50;57.90;;;;;;5053269;28;20198;-65
2022/08/24 00:43:20;;;;;;;2.30;2.10;;;24.50;57.90;;;;;;5053401;28;20254;-65
2022/08/24 00:45:54;;;;;;;2.63;2.42;;;24.50;57.90;;;;;;5050983;28;20179;-65
2022/08/24 00:48:24;;;;;;;2.22;2.00;;;24.50;57.90;;;;;;5051814;28;20257;-65
2022/08/24 00:51:05;;;;;;;2.45;2.28;;;24.50;57.90;;;;;;5051992;28;20233;-64
2022/08/24 00:53:34;;;;;;;3.13;2.20;;;24.50;57.90;;;;;;5052558;28;20277;-64
2022/08/24 00:56:02;;;;;;;2.20;2.00;;;24.50;57.90;;;;;;5052108;28;20175;-64
2022/08/24 00:58:38;;;;;;;2.30;2.08;;;24.40;57.90;;;;;;5052133;28;20186;-65
2022/08/24 01:01:05;;;;;;;2.47;2.10;;;24.50;58.00;;;;;;5050831;28;20231;-66
2022/08/24 01:03:30;;;;;;;2.45;1.95;;;24.50;57.90;;;;;;5051553;28;20638;-65
2022/08/24 01:05:56;;;;;;;2.25;2.15;;;24.50;58.00;;;;;;5052907;28;20171;-66
2022/08/24 01:08:22;;;;;;;2.42;2.22;;;24.50;58.00;;;;;;5050739;28;20231;-65
2022/08/24 01:10:51;;;;;;;2.72;2.53;;;24.50;58.40;;;;;;5052873;28;20182;-65
2022/08/24 01:13:17;;;;;;;3.13;2.03;;;24.50;58.00;;;;;;5051717;28;20263;-65
2022/08/24 01:15:44;;;;;;;2.45;2.25;;;24.50;58.00;;;;;;5050921;28;20250;-65
2022/08/24 01:21:07;;;;;;;2.30;2.10;;;24.50;58.00;;;;;;5050508;28;20178;-65
2022/08/24 01:23:39;;;;;;;2.20;2.00;;;24.50;58.10;;;;;;5051403;28;20542;-65
2022/08/24 01:26:05;;;;;;;2.10;1.90;;;24.50;58.10;;;;;;5052523;28;20178;-65
2022/08/24 01:28:30;;;;;;;2.83;2.03;;;24.40;58.00;;;;;;5050636;28;20185;-65
2022/08/24 01:30:56;;;;;;;2.40;2.20;;;24.50;58.10;;;;;;5050516;28;20559;-65
2022/08/24 01:33:24;;;;;;;2.20;2.10;;;24.50;58.10;;;;;;5052063;28;20182;-65
2022/08/24 01:35:50;;;;;;;3.33;2.60;;;24.40;58.10;;;;;;5051647;28;20378;-65
2022/08/24 01:38:16;;;;;;;2.38;2.20;;;24.50;58.20;;;;;;5051276;28;20258;-65
2022/08/24 01:40:49;;;;;;;2.45;2.22;;;24.50;58.20;;;;;;5051124;28;20258;-65
2022/08/24 01:43:15;;;;;;;2.35;2.15;;;24.40;58.10;;;;;;5050915;28;20194;-65
2022/08/24 01:45:41;;;;;;;2.50;2.28;;;24.40;58.10;;;;;;5052243;28;20195;-66
2022/08/24 01:48:07;;;;;;;3.03;2.13;;;24.40;58.10;;;;;;5052277;28;20254;-65
2022/08/24 01:50:32;;;;;;;2.25;2.05;;;24.40;58.20;;;;;;5051800;28;20266;-65
2022/08/24 01:53:00;;;;;;;2.47;2.30;;;24.40;58.20;;;;;;5052132;28;20223;-65
2022/08/24 01:55:25;;;;;;;2.35;2.15;;;24.40;58.20;;;;;;5052262;28;20232;-64
2022/08/24 01:57:51;;;;;;;2.33;2.13;;;24.40;58.20;;;;;;5051700;28;20186;-65
2022/08/24 02:00:16;;;;;;;2.08;1.92;;;24.40;58.20;;;;;;5052378;28;20226;-65
2022/08/24 02:02:42;;;;;;;3.08;2.13;;;24.40;58.20;;;;;;5051914;28;20629;-66
2022/08/24 02:05:09;;;;;;;2.20;2.10;;;24.40;58.20;;;;;;5051087;28;20171;-65
2022/08/24 02:07:35;;;;;;;2.33;2.13;;;24.40;58.20;;;;;;5054185;28;20292;-65
2022/08/24 02:10:01;;;;;;;3.70;2.10;;;24.40;58.20;;;;;;5055061;28;20171;-65
2022/08/24 02:12:26;;;;;;;2.38;2.17;;;24.30;58.20;;;;;;5056107;28;20214;-65
2022/08/24 02:14:52;;;;;;;2.83;2.10;;;24.40;58.30;;;;;;5056031;28;20262;-66
2022/08/24 02:17:17;;;;;;;2.70;2.50;;;24.40;58.30;;;;;;5055357;28;20187;-65
2022/08/24 02:19:43;;;;;;;2.47;2.00;;;24.40;58.30;;;;;;5056143;28;20167;-65
2022/08/24 02:22:09;;;;;;;2.75;1.90;;;24.40;58.30;;;;;;5055961;28;20179;-65
2022/08/24 02:24:34;;;;;;;2.38;2.17;;;24.40;58.30;;;;;;5055057;28;20630;-65
2022/08/24 02:27:01;;;;;;;2.20;2.10;;;24.40;58.30;;;;;;5055568;28;20179;-65
2022/08/24 02:29:26;;;;;;;2.42;2.13;;;24.40;58.40;;;;;;5055772;28;20171;-65
2022/08/24 02:31:52;;;;;;;2.60;2.40;;;24.40;58.40;;;;;;5054857;28;20321;-64
2022/08/24 02:34:17;;;;;;;2.30;2.10;;;24.40;58.40;;;;;;5055753;28;20172;-64
2022/08/24 02:36:43;;;;;;;2.30;2.10;;;24.30;58.30;;;;;;5055579;28;20179;-65
2022/08/24 02:39:08;;;;;;;2.50;2.22;;;24.30;58.30;;;;;;5055024;28;20175;-65
2022/08/24 02:41:35;;;;;;;3.58;2.35;;;24.30;58.30;;;;;;5055383;28;20183;-65
2022/08/24 02:44:01;;;;;;;2.40;2.20;;;24.30;58.30;;;;;;5055302;28;20179;-66
2022/08/24 02:46:28;;;;;;;2.67;2.20;;;24.30;58.30;;;;;;5054838;28;20179;-66
2022/08/24 02:48:53;;;;;;;2.20;2.10;;;24.30;58.40;;;;;;5055129;28;20182;-65
2022/08/24 02:51:24;;;;;;;2.50;2.30;;;24.30;58.40;;;;;;5055276;28;20203;-65
2022/08/24 02:53:49;;;;;;;2.63;1.95;;;24.30;58.40;;;;;;5054452;28;20186;-65
2022/08/24 02:56:16;;;;;;;2.50;2.13;;;24.30;58.40;;;;;;5055295;28;20171;-64
2022/08/24 02:58:43;;;;;;;2.10;2.00;;;24.30;58.40;;;;;;5055614;28;20187;-65
2022/08/24 03:01:09;;;;;;;2.28;2.08;;;24.30;58.40;;;;;;5054672;28;20175;-66
2022/08/24 03:03:35;;;;;;;2.33;1.98;;;24.30;58.40;;;;;;5055079;28;20646;-66
2022/08/24 03:06:00;;;;;;;2.63;2.42;;;24.30;58.40;;;;;;5054168;28;20263;-65
2022/08/24 03:08:26;;;;;;;2.67;2.30;;;24.30;58.40;;;;;;5054846;28;20700;-65
2022/08/24 03:10:52;;;;;;;2.50;2.30;;;24.30;58.40;;;;;;5055397;28;20266;-65
2022/08/24 03:13:17;;;;;;;2.70;2.50;;;24.30;58.50;;;;;;5053966;28;20305;-65
2022/08/24 03:15:45;;;;;;;2.28;2.10;;;24.30;58.50;;;;;;5055168;28;20175;-65
2022/08/24 03:18:10;;;;;;;2.50;2.30;;;24.30;58.50;;;;;;5053829;28;20217;-65
2022/08/24 03:20:36;;;;;;;2.70;2.25;;;24.30;58.50;;;;;;5054015;28;20211;-65
2022/08/24 03:23:02;;;;;;;2.50;2.10;;;24.30;58.50;;;;;;5054781;28;20213;-66
2022/08/24 03:25:28;;;;;;;2.40;2.20;;;24.30;58.50;;;;;;5054681;28;20691;-65
2022/08/24 03:27:54;;;;;;;2.60;2.40;;;24.30;58.50;;;;;;5053791;28;20175;-66
2022/08/24 03:30:19;;;;;;;2.30;2.20;;;24.30;58.50;;;;;;5054881;28;20538;-65
2022/08/24 03:32:45;;;;;;;2.63;2.42;;;24.30;58.50;;;;;;5054252;28;20575;-65
2022/08/24 03:35:11;;;;;;;2.50;2.30;;;24.30;58.50;;;;;;5053534;28;20167;-65
2022/08/24 03:37:36;;;;;;;2.70;2.50;;;24.30;58.50;;;;;;5054735;28;20182;-65
2022/08/24 03:40:04;;;;;;;2.53;2.33;;;24.30;58.50;;;;;;5054497;28;20174;-66
2022/08/24 03:42:29;;;;;;;2.60;2.40;;;24.20;58.50;;;;;;5053931;28;20190;-65
2022/08/24 03:44:55;;;;;;;2.45;2.25;;;24.20;58.50;;;;;;5054311;28;20175;-65
2022/08/24 03:47:21;;;;;;;2.72;2.40;;;24.30;58.50;;;;;;5054467;28;20508;-66
2022/08/24 03:49:49;;;;;;;2.15;2.05;;;24.30;58.60;;;;;;5053257;28;20175;-65
2022/08/24 03:52:14;;;;;;;3.33;2.30;;;24.30;58.50;;;;;;5054186;28;20673;-65
2022/08/24 03:54:40;;;;;;;2.38;2.10;;;24.20;58.50;;;;;;5053942;28;20177;-65
2022/08/24 03:57:05;;;;;;;2.42;2.30;;;24.20;58.50;;;;;;5053216;28;20181;-65
2022/08/24 03:59:31;;;;;;;2.40;2.20;;;24.20;58.50;;;;;;5054170;28;20174;-65
2022/08/24 04:01:56;;;;;;;2.45;2.35;;;24.30;58.60;;;;;;5054086;28;20189;-66
2022/08/24 04:04:22;;;;;;;2.60;2.40;;;24.20;58.50;;;;;;5053233;28;20185;-66
2022/08/24 04:06:48;;;;;;;2.47;2.28;;;24.20;58.50;;;;;;5054047;28;20707;-66
2022/08/24 04:09:14;;;;;;;2.92;2.47;;;24.20;58.60;;;;;;5052589;28;20219;-65
2022/08/24 04:11:39;;;;;;;2.60;2.40;;;24.20;58.50;;;;;;5053919;28;20233;-64
2022/08/24 04:14:07;;;;;;;2.72;2.50;;;24.20;58.50;;;;;;5053627;28;20677;-65
2022/08/24 04:16:33;;;;;;;2.30;2.20;;;24.20;58.50;;;;;;5052893;28;20281;-66
2022/08/24 04:18:58;;;;;;;2.42;2.22;;;24.20;58.50;;;;;;5053293;28;20179;-66
2022/08/24 04:21:26;;;;;;;2.50;2.38;;;24.20;58.60;;;;;;5053299;28;20232;-65
2022/08/24 04:23:52;;;;;;;2.65;2.45;;;24.20;58.50;;;;;;5052380;28;20190;-66
2022/08/24 04:26:18;;;;;;;2.53;2.33;;;24.20;58.50;;;;;;5053617;28;20171;-65
2022/08/24 04:28:43;;;;;;;2.75;2.55;;;24.20;58.50;;;;;;5053539;28;20187;-65
2022/08/24 04:31:09;;;;;;;2.60;2.40;;;24.20;58.50;;;;;;5052644;28;20314;-65
2022/08/24 04:33:35;;;;;;;2.85;2.65;;;24.20;58.60;;;;;;5053174;28;20316;-64
2022/08/24 04:36:01;;;;;;;2.55;2.35;;;24.20;58.50;;;;;;5053174;28;20194;-65
2022/08/24 04:38:28;;;;;;;2.53;2.42;;;24.20;58.50;;;;;;5052822;28;20250;-65
2022/08/24 04:40:54;;;;;;;2.50;2.40;;;24.20;58.60;;;;;;5053169;28;20171;-65
2022/08/24 04:43:19;;;;;;;2.55;2.33;;;24.20;58.60;;;;;;5053294;28;20254;-66
2022/08/24 04:45:46;;;;;;;2.75;2.58;;;24.20;58.60;;;;;;5052248;28;20186;-66
2022/08/24 04:48:13;;;;;;;3.17;2.88;;;24.20;58.60;;;;;;5053029;28;20175;-65
2022/08/24 04:50:39;;;;;;;2.70;2.50;;;24.20;58.60;;;;;;5053040;28;20305;-65
2022/08/24 04:53:05;;;;;;;2.80;2.60;;;24.20;58.60;;;;;;5052030;28;20222;-64
2022/08/24 04:55:31;;;;;;;3.28;2.53;;;24.20;58.60;;;;;;5053182;28;20561;-65
2022/08/24 04:57:57;;;;;;;3.25;2.85;;;24.20;58.60;;;;;;5052855;28;20595;-65
2022/08/24 05:00:22;;;;;;;2.42;2.13;;;24.20;58.50;;;;;;5052089;28;20296;-65
2022/08/24 05:02:48;;;;;;;2.95;2.70;;;24.10;58.50;;;;;;5052682;28;20187;-66
2022/08/24 05:05:14;;;;;;;2.65;2.45;;;24.20;58.60;;;;;;5052985;28;20163;-66
2022/08/24 05:07:39;;;;;;;2.20;2.00;;;24.20;58.50;;;;;;5052188;28;20226;-65
2022/08/24 05:10:12;;;;;;;2.50;2.30;;;24.20;58.50;;;;;;5052711;28;20167;-66
2022/08/24 05:12:38;;;;;;;2.80;2.60;;;24.20;58.50;;;;;;5052110;28;20215;-66
2022/08/24 05:15:04;;;;;;;2.90;2.65;;;24.20;58.50;;;;;;5052292;28;20221;-66
2022/08/24 05:17:29;;;;;;;2.60;2.40;;;24.20;58.50;;;;;;5052434;28;20183;-65
2022/08/24 05:19:56;;;;;;;2.65;2.45;;;24.20;58.50;;;;;;5051518;28;20182;-66
2022/08/24 05:22:21;;;;;;;2.63;2.42;;;24.20;58.50;;;;;;5052368;28;20181;-65
2022/08/24 05:24:47;;;;;;;2.65;2.45;;;24.20;58.50;;;;;;5052064;28;20259;-65
2022/08/24 05:27:12;;;;;;;2.80;2.60;;;24.20;58.50;;;;;;5051719;28;20625;-65
2022/08/24 05:29:38;;;;;;;2.88;2.60;;;24.20;58.50;;;;;;5052457;28;20171;-64
2022/08/24 05:32:04;;;;;;;3.00;2.70;;;24.20;58.50;;;;;;5051782;28;20210;-67
2022/08/24 05:34:29;;;;;;;2.97;2.78;;;24.20;58.40;;;;;;5052086;28;20221;-66
2022/08/24 05:36:55;;;;;;;4.25;3.05;;;24.20;58.60;;;;;;5052347;28;20634;-66
2022/08/24 05:39:20;;;;;;;4.22;2.70;;;24.20;58.50;;;;;;5052538;28;20182;-67
2022/08/24 05:41:46;;;;;;;2.65;2.45;;;24.20;58.40;;;;;;5052898;28;20179;-67
2022/08/24 05:44:13;;;;;;;2.88;2.65;;;24.20;58.40;;;;;;5056643;28;20179;-67
2022/08/24 05:46:39;;;;;;;2.83;2.60;;;24.20;58.40;;;;;;5056606;28;20222;-66
2022/08/24 05:49:04;;;;;;;3.05;2.85;;;24.20;58.40;;;;;;5055799;28;20199;-66
2022/08/24 05:51:30;;;;;;;4.15;2.90;;;24.20;58.40;;;;;;5056501;28;20554;-61
2022/08/24 05:53:56;;;;;;;4.93;3.33;;;24.20;58.40;;;;;;5056362;28;20194;-64
2022/08/24 05:56:22;;;;;;;4.93;3.83;;;24.20;58.40;;;;;;5055926;28;20182;-63
2022/08/24 05:58:47;;;;;;;5.57;4.60;;;24.20;58.40;;;;;;5056424;28;20175;-63
2022/08/24 06:01:14;;;;;;;5.75;4.13;;;24.20;58.70;;;;;;5056554;28;20199;-62
2022/08/24 06:03:40;;;;;;;6.95;3.88;;;24.20;59.10;;;;;;5055797;28;20179;-63
2022/08/24 06:06:07;;;;;;;7.28;3.72;;;24.30;59.00;;;;;;5056208;28;20167;-63
2022/08/24 06:08:37;;;;;;;3.85;3.55;;;24.30;59.10;;;;;;5056070;28;20306;-63
2022/08/24 06:11:02;;;;;;;7.57;3.50;;;24.40;59.40;;;;;;5055400;28;20179;-63
2022/08/24 06:13:28;;;;;;;6.32;3.63;;;24.40;59.30;;;;;;5056031;28;20266;-63
2022/08/24 06:16:11;;;;;;;4.57;3.80;;;24.40;59.40;;;;;;5055271;28;20182;-63
2022/08/24 06:18:37;;;;;;;5.85;4.00;;;24.50;59.50;;;;;;5056010;28;20182;-63
2022/08/24 06:21:06;;;;;;;4.13;3.75;;;24.50;59.60;;;;;;5055662;28;20182;-63
2022/08/24 06:23:32;;;;;;;5.35;3.88;;;24.50;59.60;;;;;;5053904;28;20553;-64
2022/08/24 06:28:42;;;;;;;4.15;3.85;;;24.50;59.80;;;;;;5055931;28;20274;-63
2022/08/24 06:31:08;;;;;;;5.60;3.78;;;24.60;60.00;;;;;;5055019;28;20669;-63
2022/08/24 06:33:33;;;;;;;4.35;3.70;;;24.60;60.00;;;;;;5055999;28;20654;-62
2022/08/24 06:35:59;;;;;;;5.55;3.58;;;24.60;60.00;;;;;;5055587;28;20698;-63
2022/08/24 06:38:24;;;;;;;4.43;4.03;;;24.60;60.00;;;;;;5054811;28;20575;-63
2022/08/24 06:40:50;;;;;;;6.28;4.47;;;24.60;60.20;;;;;;5055422;28;20511;-63
2022/08/24 06:43:15;;;;;;;4.40;3.72;;;24.70;60.20;;;;;;5055763;28;20182;-64
2022/08/24 06:45:41;;;;;;;3.90;3.60;;;24.60;60.10;;;;;;5054916;28;20171;-64
2022/08/24 06:48:07;;;;;;;3.83;3.53;;;24.70;60.00;;;;;;5054937;28;20541;-63
2022/08/24 06:50:33;;;;;;;3.70;3.40;;;24.70;60.00;;;;;;5055542;28;20689;-63
2022/08/24 06:52:59;;;;;;;4.55;3.72;;;24.70;59.90;;;;;;5052959;28;20214;-63
2022/08/24 06:55:25;;;;;;;5.50;3.78;;;24.80;60.20;;;;;;5055131;28;20179;-63
2022/08/24 06:57:50;;;;;;;4.72;3.83;;;24.80;59.90;;;;;;5055260;28;20695;-62
2022/08/24 07:00:16;;;;;;;6.65;3.80;;;24.70;59.70;;;;;;5054587;28;20199;-64
2022/08/24 07:02:41;;;;;;;5.65;3.78;;;24.80;59.80;;;;;;5055475;28;20685;-64
2022/08/24 07:05:07;;;;;;;5.40;3.97;;;24.80;59.70;;;;;;5054018;28;20171;-60
2022/08/24 07:07:33;;;;;;;5.05;3.78;;;24.80;59.80;;;;;;5054738;28;20246;-61
2022/08/24 07:09:59;;;;;;;4.82;4.20;;;24.80;59.70;;;;;;5053402;28;20215;-61
2022/08/24 07:12:25;;;;;;;5.32;3.28;;;24.80;59.60;;;;;;5054179;28;20292;-61
2022/08/24 07:14:51;;;;;;;4.28;3.55;;;24.80;60.20;;;;;;5055042;28;20173;-60
2022/08/24 07:17:17;;;;;;;4.20;3.38;;;24.80;59.50;;;;;;5055084;28;20179;-61
2022/08/24 07:19:43;;;;;;;3.72;3.30;;;24.80;59.50;;;;;;5054328;28;20256;-61
2022/08/24 07:22:08;;;;;;;6.22;3.75;;;24.80;59.40;;;;;;5054935;28;20310;-61
2022/08/24 07:24:34;;;;;;;6.43;3.45;;;24.80;59.30;;;;;;5054695;28;20183;-60
2022/08/24 07:27:00;;;;;;;4.32;3.28;;;24.80;59.30;;;;;;5054049;28;20179;-60
2022/08/24 07:29:25;;;;;;;4.60;3.58;;;24.80;59.30;;;;;;5054608;28;20175;-60
2022/08/24 07:31:51;;;;;;;9.15;3.60;;;24.90;59.30;;;;;;5054612;28;20294;-61
2022/08/24 07:34:16;;;;;;;4.95;3.70;;;24.90;59.20;;;;;;5054082;28;20175;-60
2022/08/24 07:36:41;;;;;;;3.95;3.35;;;24.90;59.20;;;;;;5054765;28;20214;-60
2022/08/24 07:39:08;;;;;;;6.55;3.83;;;24.90;59.20;;;;;;5054603;28;20262;-61
2022/08/24 07:41:37;;;;;;;3.72;3.33;;;24.90;59.20;;;;;;5053966;28;20175;-60
2022/08/24 07:44:02;;;;;;;4.78;3.30;;;24.90;59.70;;;;;;5054421;28;20221;-61
2022/08/24 07:46:28;;;;;;;5.65;3.55;;;24.90;59.10;;;;;;5054443;28;20175;-60
2022/08/24 07:48:53;;;;;;;6.85;3.35;;;24.90;59.10;;;;;;5053701;28;20198;-60
2022/08/24 07:51:19;;;;;;;3.50;3.28;;;24.90;59.00;;;;;;5054440;28;20536;-60
2022/08/24 07:53:45;;;;;;;4.95;3.05;;;24.90;59.00;;;;;;5054173;28;20179;-61
2022/08/24 07:56:11;;;;;;;4.43;3.17;;;25.00;59.00;;;;;;5053804;28;20175;-60
2022/08/24 07:58:37;;;;;;;3.60;3.30;;;25.00;58.90;;;;;;5054216;28;20186;-60
2022/08/24 08:01:04;;;;;;;3.53;3.25;;;25.00;58.90;;;;;;5054013;28;20171;-60
2022/08/24 08:03:32;;;;;;;3.20;3.00;;;25.00;58.90;;;;;;5053444;28;20629;-60
2022/08/24 08:06:07;;;;;;;4.78;3.08;;;25.00;58.80;;;;;;5053677;28;20274;-60
2022/08/24 08:08:37;;;;;;;3.53;3.22;;;25.00;58.80;;;;;;5053164;28;20266;-61
2022/08/24 08:11:03;;;;;;;3.22;2.90;;;25.00;58.80;;;;;;5053767;28;20539;-61
2022/08/24 08:13:29;;;;;;;7.05;3.00;;;25.10;58.80;;;;;;5053895;28;20215;-61
2022/08/24 08:15:55;;;;;;;6.60;3.00;;;25.10;58.80;;;;;;5053046;28;20545;-60
2022/08/24 08:18:21;;;;;;;4.80;3.63;;;25.10;58.80;;;;;;5053733;28;20638;-60
2022/08/24 08:20:47;;;;;;;5.75;3.30;;;25.10;58.70;;;;;;5053619;28;20179;-61
2022/08/24 08:25:57;;;;;;;3.08;2.88;;;25.20;58.70;;;;;;5053619;28;20304;-61
2022/08/24 08:28:23;;;;;;;3.55;3.25;;;25.20;58.70;;;;;;5053625;28;20258;-61
2022/08/24 08:30:49;;;;;;;3.70;2.75;;;25.20;59.20;;;;;;5052660;28;20652;-60
2022/08/24 08:33:14;;;;;;;3.38;2.95;;;25.20;58.60;;;;;;5053396;28;20215;-60
2022/08/24 08:35:41;;;;;;;4.30;3.13;;;25.20;58.50;;;;;;5053623;28;20175;-60
2022/08/24 08:38:07;;;;;;;3.38;3.08;;;25.30;58.60;;;;;;5052693;28;20179;-61
2022/08/24 08:40:42;;;;;;;4.13;2.92;;;25.30;58.50;;;;;;5053571;28;20199;-60
2022/08/24 08:43:24;;;;;;;3.15;2.92;;;25.30;58.50;;;;;;5053100;28;20675;-60
2022/08/24 08:46:07;;;;;;;3.40;3.10;;;25.40;58.50;;;;;;5051665;28;20171;-61
2022/08/24 08:49:01;;;;;;;3.17;2.88;;;25.30;58.40;;;;;;5052070;28;20175;-61
2022/08/24 08:51:32;;;;;;;3.10;2.90;;;25.40;58.40;;;;;;5052359;28;20174;-60
2022/08/24 08:54:18;;;;;;;3.20;2.90;;;25.40;58.40;;;;;;5051778;28;20187;-60
2022/08/24 08:56:52;;;;;;;2.70;2.50;;;25.40;58.40;;;;;;5041602;28;20190;-61
2022/08/24 08:59:31;;;;;;;4.40;2.80;;;25.40;58.30;;;;;;5052305;28;20182;-60
2022/08/24 09:02:17;;;;;;;2.80;2.60;;;25.40;58.30;;;;;;5052928;28;20171;-60
2022/08/24 09:04:54;;;;;;;2.88;2.63;;;25.50;58.30;;;;;;5051062;28;20629;-61
2022/08/24 09:07:21;;;;;;;3.45;3.15;;;25.50;58.30;;;;;;5051766;28;20579;-61
2022/08/24 09:10:08;;;;;;;3.50;3.08;;;25.50;58.20;;;;;;5051644;28;20198;-60
2022/08/24 09:12:56;;;;;;;3.25;2.78;;;25.50;58.20;;;;;;5050943;28;20207;-60
2022/08/24 09:15:24;;;;;;;3.17;2.70;;;25.60;58.20;;;;;;5051407;28;20518;-61
2022/08/24 09:18:27;;;;;;;2.85;2.65;;;25.60;58.20;;;;;;5052314;28;20273;-61
2022/08/24 09:21:00;;;;;;;2.70;2.50;;;25.60;58.10;;;;;;5052032;28;20189;-61
2022/08/24 09:23:38;;;;;;;2.85;2.63;;;25.60;58.10;;;;;;5051489;28;20236;-61
2022/08/24 09:26:23;;;;;;;2.95;2.75;;;25.60;58.10;;;;;;5050653;28;20645;-61
2022/08/24 09:28:53;;;;;;;3.75;2.60;;;25.60;58.10;;;;;;5051339;28;20712;-61
2022/08/24 09:31:52;;;;;;;3.28;2.70;;;25.70;58.10;;;;;;5051430;28;20190;-60
2022/08/24 09:34:25;;;;;;;3.58;2.55;;;25.70;58.10;;;;;;5052125;28;20229;-60
2022/08/24 09:36:58;;;;;;;4.35;3.00;;;25.70;58.00;;;;;;5051392;28;20175;-60
2022/08/24 09:39:47;;;;;;;2.85;2.65;;;25.70;58.00;;;;;;5051415;28;20679;-60
2022/08/24 09:42:41;;;;;;;2.83;2.63;;;25.80;58.00;;;;;;5052475;28;20697;-60
2022/08/24 09:45:50;;;;;;;2.95;2.67;;;25.80;58.00;;;;;;5052503;28;20182;-61
2022/08/24 09:48:23;;;;;;;3.20;2.70;;;25.80;58.00;;;;;;5050479;28;20209;-60
2022/08/24 09:51:16;;;;;;;2.55;2.35;;;25.80;57.90;;;;;;5051521;28;20254;-60
2022/08/24 09:53:55;;;;;;;3.47;2.90;;;25.90;58.00;;;;;;5052394;28;20699;-60
2022/08/24 09:56:23;;;;;;;3.10;2.80;;;25.90;57.90;;;;;;5051290;28;20179;-60
2022/08/24 09:59:20;;;;;;;2.60;2.40;;;25.90;57.90;;;;;;5052300;28;20618;-59
2022/08/24 10:02:16;;;;;;;2.70;2.50;;;25.90;57.90;;;;;;5051683;28;20325;-59
2022/08/24 10:04:49;;;;;;;2.33;2.22;;;25.90;57.90;;;;;;5052247;28;20213;-60
2022/08/24 10:07:35;;;;;;;3.65;3.00;;;25.90;57.80;;;;;;5052233;28;20246;-60
2022/08/24 10:10:00;;;;;;;2.85;2.65;;;26.00;57.80;;;;;;5050334;28;20179;-60
2022/08/24 10:12:54;;;;;;;2.50;2.40;;;26.00;57.80;;;;;;5052145;28;20223;-60
2022/08/24 10:15:35;;;;;;;2.95;2.33;;;26.00;57.80;;;;;;5051445;28;20179;-60
2022/08/24 10:18:38;;;;;;;2.60;2.33;;;26.00;57.80;;;;;;5051027;28;20176;-60
2022/08/24 10:21:20;;;;;;;2.60;2.50;;;26.00;57.70;;;;;;5052106;28;20524;-60
2022/08/24 10:23:53;;;;;;;2.88;2.67;;;26.00;57.80;;;;;;5051527;28;20168;-60
2022/08/24 10:26:32;;;;;;;2.63;2.20;;;26.00;57.70;;;;;;5051158;28;20232;-61
2022/08/24 10:29:30;;;;;;;2.83;2.58;;;26.00;57.70;;;;;;5053886;28;20186;-60
2022/08/24 10:32:11;;;;;;;3.15;2.25;;;26.10;57.70;;;;;;5054353;28;20217;-60
2022/08/24 10:34:44;;;;;;;2.70;2.53;;;26.10;57.70;;;;;;5054782;28;20171;-60
2022/08/24 10:40:59;;;;;;;2.97;2.45;;;26.10;57.60;;;;;;5049191;28;20182;-60
2022/08/24 10:43:34;;;;;;;2.55;2.33;;;26.20;57.70;;;;;;5053677;28;20175;-60
2022/08/24 10:46:41;;;;;;;2.50;2.30;;;26.20;57.70;;;;;;5054252;28;20547;-60
2022/08/24 10:49:27;;;;;;;2.70;2.50;;;26.20;57.70;;;;;;5046461;28;20325;-60
2022/08/24 10:52:11;;;;;;;2.78;2.05;;;26.20;57.70;;;;;;5053636;28;20231;-63
2022/08/24 10:54:37;;;;;;;2.90;2.70;;;26.20;57.70;;;;;;5055131;28;20171;-64
2022/08/24 10:57:15;;;;;;;3.63;2.35;;;26.10;57.80;;;;;;5054928;28;20190;-64
2022/08/24 11:00:10;;;;;;;3.65;2.65;;;26.10;57.90;;;;;;5055101;28;20200;-64
2022/08/24 11:02:37;;;;;;;3.10;2.80;;;26.10;58.00;;;;;;5055332;28;20229;-64
2022/08/24 11:05:14;;;;;;;7.53;2.85;;;26.10;58.20;;;;;;5054204;28;20199;-64
2022/08/24 11:07:58;;;;;;;3.67;2.90;;;26.00;58.50;;;;;;5055150;28;20214;-64
2022/08/24 11:10:26;;;;;;;4.22;2.95;;;26.10;58.60;;;;;;5053838;28;20638;-63
2022/08/24 11:12:52;;;;;;;4.25;2.92;;;26.20;58.70;;;;;;5054176;28;20587;-63
2022/08/24 11:15:19;;;;;;;3.63;2.83;;;26.20;58.70;;;;;;5055086;28;20176;-63
2022/08/24 11:18:01;;;;;;;7.75;3.10;;;26.10;58.70;;;;;;5054925;28;20187;-63
2022/08/24 11:20:33;;;;;;;5.65;3.17;;;26.10;58.70;;;;;;5054317;28;20194;-64
2022/08/24 11:23:16;;;;;;;4.35;2.97;;;26.10;58.80;;;;;;5054356;28;20168;-61
2022/08/24 11:25:56;;;;;;;5.30;3.00;;;26.10;58.80;;;;;;5052780;28;20213;-61
2022/08/24 11:28:45;;;;;;;5.05;2.88;;;26.10;58.90;;;;;;5054337;28;20171;-61
2022/08/24 11:31:11;;;;;;;3.33;2.92;;;26.20;59.00;;;;;;5054914;28;20187;-61
2022/08/24 11:33:44;;;;;;;4.13;2.72;;;26.30;59.10;;;;;;5053584;28;20357;-63
2022/08/24 11:36:18;;;;;;;5.90;3.10;;;26.20;59.20;;;;;;5054394;28;20175;-63
2022/08/24 11:38:46;;;;;;;4.57;2.70;;;26.10;59.20;;;;;;5053744;28;20187;-63
2022/08/24 11:41:24;;;;;;;6.45;3.28;;;26.10;59.10;;;;;;5052702;28;20179;-63
2022/08/24 11:44:04;;;;;;;4.60;2.60;;;26.00;59.20;;;;;;5053386;28;20182;-64
2022/08/24 11:46:52;;;;;;;6.03;3.00;;;26.00;59.20;;;;;;5051892;28;20187;-64
2022/08/24 11:49:36;;;;;;;5.72;3.10;;;26.00;59.20;;;;;;5053098;28;20175;-64
2022/08/24 11:52:14;;;;;;;7.13;2.83;;;26.00;59.10;;;;;;5053078;28;20294;-63
2022/08/24 11:54:59;;;;;;;3.72;2.75;;;26.00;58.90;;;;;;5053660;28;20183;-64
2022/08/24 11:57:46;;;;;;;5.75;3.03;;;26.10;58.80;;;;;;5052905;28;20179;-64
2022/08/24 12:00:18;;;;;;;2.60;2.40;;;26.10;58.60;;;;;;5052930;28;20663;-64
2022/08/24 12:03:24;;;;;;;5.15;2.63;;;26.20;58.50;;;;;;5053471;28;20262;-64
2022/08/24 12:06:00;;;;;;;4.10;2.58;;;26.30;58.30;;;;;;5048936;28;20219;-64
2022/08/24 12:08:48;;;;;;;2.90;2.65;;;26.30;58.10;;;;;;5053208;28;20231;-64
2022/08/24 12:11:38;;;;;;;3.90;2.25;;;26.30;58.00;;;;;;5054141;28;20225;-64
2022/08/24 12:14:32;;;;;;;4.45;2.95;;;26.30;58.00;;;;;;5052257;28;20244;-64
2022/08/24 12:17:15;;;;;;;3.75;2.50;;;26.40;58.00;;;;;;5052835;28;20179;-64
2022/08/24 12:19:48;;;;;;;4.22;2.10;;;26.40;57.90;;;;;;5053766;28;20222;-64
2022/08/24 12:22:13;;;;;;;5.13;2.35;;;26.50;57.70;;;;;;5051935;28;20254;-64
2022/08/24 12:24:46;;;;;;;4.25;2.40;;;26.60;57.60;;;;;;5052330;28;20589;-64
2022/08/24 12:27:21;;;;;;;4.95;2.33;;;26.60;57.50;;;;;;5053963;28;20182;-64
2022/08/24 12:29:51;;;;;;;4.07;2.63;;;26.70;57.30;;;;;;5051776;28;20256;-64
2022/08/24 12:32:29;;;;;;;2.60;2.40;;;26.70;57.20;;;;;;5052418;28;20215;-63
2022/08/24 12:35:02;;;;;;;2.58;2.28;;;26.80;57.10;;;;;;5051999;28;20238;-65
2022/08/24 12:37:36;;;;;;;2.58;2.30;;;26.80;57.00;;;;;;5052695;28;20634;-65
2022/08/24 12:40:10;;;;;;;2.95;2.30;;;26.90;57.00;;;;;;5052016;28;20186;-64
2022/08/24 12:42:44;;;;;;;2.17;2.05;;;26.90;56.90;;;;;;5053187;28;20221;-64
2022/08/24 12:45:11;;;;;;;2.40;2.20;;;26.90;56.90;;;;;;5053371;28;20274;-64
2022/08/24 12:48:07;;;;;;;2.53;2.25;;;26.90;56.90;;;;;;5053206;28;20190;-64
2022/08/24 12:50:48;;;;;;;3.00;2.30;;;26.90;56.90;;;;;;5052576;28;20174;-63
2022/08/24 12:53:35;;;;;;;2.63;2.25;;;27.00;56.90;;;;;;5051859;28;20214;-63
2022/08/24 12:56:21;;;;;;;2.47;2.25;;;27.00;56.80;;;;;;5053166;28;20187;-63
2022/08/24 12:59:00;;;;;;;2.40;2.20;;;26.90;56.80;;;;;;5051067;28;20626;-63
2022/08/24 13:01:28;;;;;;;2.25;1.90;;;26.90;56.90;;;;;;5053055;28;20216;-63
2022/08/24 13:04:11;;;;;;;2.67;1.88;;;26.90;56.90;;;;;;5050719;28;20171;-63
2022/08/24 13:06:43;;;;;;;2.85;2.05;;;26.80;56.90;;;;;;5051539;28;20182;-63
2022/08/24 13:09:32;;;;;;;2.33;2.13;;;26.70;57.10;;;;;;5051726;28;20231;-64
2022/08/24 13:11:59;;;;;;;2.20;2.00;;;26.70;57.10;;;;;;5052005;28;20260;-63
2022/08/24 13:14:27;;;;;;;2.22;2.03;;;26.80;57.10;;;;;;5052731;28;20175;-64
2022/08/24 13:16:55;;;;;;;2.20;2.00;;;26.80;57.70;;;;;;5052866;28;20179;-64
2022/08/24 13:19:30;;;;;;;2.10;1.90;;;26.70;56.90;;;;;;5052166;28;20168;-64